Terminal Aerodrome Forecast
Issued by NWS Caribou, ME

Home | Current Version | Previous Version | Text Only | Print | Product List | Glossary On
Versions: 1 2 3 4 5 6 7 8 9 10 11 12 13 14 15 16 17 18 19 20
000
FTUS41 KCAR 291730
TAFCAR
TAF
KCAR 291730Z 2918/3018 13005KT P6SM SCT200
     FM292300 16006KT P6SM SCT250
     FM300930 14006KT 3SM -SN SCT009 OVC025
     FM301400 13007KT 1SM -SN OVC015=

USA.gov is the U.S. government's official web portal to all federal, state and local government web resources and services.